This is the latest recevied weather packets stored in our database for station/object Kosetice. If no packets are shown the sender has not sent any weather packets the latest 1 day(s).
| Time | Temp. | Humidity | Pressure | Rain* | Wind** | Luminosity | Snow |
|---|---|---|---|---|---|---|---|
| 1778030431 | 12.22° C | 93% | - | - | 2.24 m/s, 230° | - | - |
| 1778026765 | 12.78° C | 87% | - | - | 2.24 m/s, 260° | - | - |
| 1778023165 | 12.78° C | 87% | - | - | 4.02 m/s, 310° | - | - |
| 1778019565 | 13.89° C | 76% | - | - | 5.36 m/s, 290° | - | - |
| 1778016025 | 16.11° C | 59% | - | - | 2.24 m/s, 120° | - | - |
| 1778012381 | 15° C | 72% | - | - | 2.24 m/s, 100° | - | - |
| 1778008798 | 15° C | 77% | - | - | 2.24 m/s, 120° | - | - |
| 1778005183 | 16.11° C | 72% | - | - | 0.89 m/s, 0° | - | - |
| 1778001566 | 16.11° C | 72% | - | - | 3.13 m/s, 320° | - | - |
| 1777998042 | 15° C | 82% | - | - | 3.13 m/s, 300° | - | - |
| 1777994382 | 17.22° C | 63% | - | - | 5.36 m/s, 170° | - | - |
| 1777990782 | 22.22° C | 40% | - | - | 4.02 m/s, 110° | - | - |
| 1777987167 | 22.78° C | 38% | - | - | 3.13 m/s, 50° | - | - |
| 1777983565 | 22.78° C | 38% | - | - | 3.13 m/s, 360° | - | - |
| 1777979966 | 22.22° C | 37% | - | - | 3.13 m/s, 50° | - | - |
| 1777976366 | 22.22° C | 37% | - | - | 2.24 m/s, 0° | - | - |
| 1777972765 | 20° C | 42% | - | - | 2.24 m/s, 0° | - | - |
| 1777969166 | 18.89° C | 42% | - | - | 2.24 m/s, 0° | - | - |
| 1777965566 | 17.22° C | 45% | - | - | 2.24 m/s, 0° | - | - |
| 1777961967 | 15° C | 47% | - | - | 2.24 m/s, 0° | - | - |
| 1777958365 | 12.78° C | 58% | - | - | 0.89 m/s, 150° | - | - |
| 1777954766 | 12.22° C | 58% | - | - | 0.89 m/s, 270° | - | - |
| 1777951165 | 13.89° C | 50% | - | - | 3.13 m/s, 120° | - | - |
| 1777947564 | 13.89° C | 58% | - | - | 2.24 m/s, 0° | - | - |
* Rain since midnight (hover to see other rain measurements)
** Current wind speed in m/s (hover to see current wind gust speed)